Observation data for Lamesa on 06/15/2019      Previous  Date  Next       Current Mesonet Observations  Soil Data  Daily Summary Page  Observations in Plain Language
KLES 150500Z 18011G16KT 25/18 A2988 RMK A01 T02530175  RH  065%=      5-min Rain = 0
KLES 150505Z 18012KT 25/18 A2988 RMK A01 T02520175  RH  066%=      5-min Rain = 0
KLES 150510Z 18011KT 25/18 A2988 RMK A01 T02510175  RH  066%=      5-min Rain = 0
KLES 150515Z 17012KT 25/18 A2988 RMK A01 T02510175  RH  066%=      5-min Rain = 0
KLES 150520Z 17012KT 25/17 A2988 RMK A01 T02510174  RH  066%=      5-min Rain = 0
KLES 150525Z 17011KT 25/17 A2988 RMK A01 T02490174  RH  066%=      5-min Rain = 0
KLES 150530Z 17011KT 25/17 A2988 RMK A01 T02480173  RH  066%=      5-min Rain = 0
KLES 150535Z 17012KT 25/17 A2988 RMK A01 T02460172  RH  066%=      5-min Rain = 0
KLES 150540Z 17012KT 25/17 A2988 RMK A01 T02460171  RH  066%=      5-min Rain = 0
KLES 150545Z 17011KT 25/17 A2988 RMK A01 T02450170  RH  066%=      5-min Rain = 0
KLES 150550Z 17011G16KT 24/17 A2988 RMK A01 T02440168  RH  066%=      5-min Rain = 0
KLES 150555Z 17013KT 24/17 A2988 RMK A01 T02440167  RH  065%=      5-min Rain = 0
KLES 150600Z 18012KT 24/17 A2988 RMK A01 T02440165  RH  065%=      5-min Rain = 0
KLES 150605Z 18012KT 24/16 A2988 RMK A01 T02430164  RH  065%=      5-min Rain = 0
KLES 150610Z 18012KT 24/16 A2988 RMK A01 T02420163  RH  065%=      5-min Rain = 0
KLES 150615Z 18012KT 24/16 A2988 RMK A01 T02400162  RH  065%=      5-min Rain = 0
KLES 150620Z 18012KT 24/16 A2988 RMK A01 T02400161  RH  064%=      5-min Rain = 0
KLES 150625Z 19012KT 24/16 A2988 RMK A01 T02400159  RH  063%=      5-min Rain = 0
KLES 150630Z 18011KT 24/16 A2988 RMK A01 T02400157  RH  063%=      5-min Rain = 0
KLES 150635Z 18012KT 24/16 A2987 RMK A01 T02400156  RH  062%=      5-min Rain = 0
KLES 150640Z 18013KT 24/15 A2987 RMK A01 T02400154  RH  061%=      5-min Rain = 0
KLES 150645Z 18012KT 24/15 A2987 RMK A01 T02400154  RH  061%=      5-min Rain = 0
KLES 150650Z 18012KT 24/15 A2987 RMK A01 T02390153  RH  061%=      5-min Rain = 0
KLES 150655Z 18012KT 24/15 A2987 RMK A01 T02380152  RH  061%=      5-min Rain = 0
KLES 150700Z 17012KT 24/15 A2986 RMK A01 T02380151  RH  061%=      5-min Rain = 0
KLES 150705Z 17013KT 24/15 A2986 RMK A01 T02380150  RH  061%=      5-min Rain = 0
KLES 150710Z 17013KT 24/15 A2986 RMK A01 T02380150  RH  060%=      5-min Rain = 0
KLES 150715Z 18012KT 24/15 A2986 RMK A01 T02370149  RH  060%=      5-min Rain = 0
KLES 150720Z 17012KT 24/15 A2986 RMK A01 T02370148  RH  060%=      5-min Rain = 0
KLES 150725Z 17012KT 24/15 A2986 RMK A01 T02360148  RH  060%=      5-min Rain = 0
KLES 150730Z 17012KT 24/15 A2986 RMK A01 T02350147  RH  060%=      5-min Rain = 0
KLES 150735Z 17011KT 23/15 A2985 RMK A01 T02340147  RH  060%=      5-min Rain = 0
KLES 150740Z 17010KT 23/15 A2985 RMK A01 T02330146  RH  061%=      5-min Rain = 0
KLES 150745Z 17010KT 23/15 A2985 RMK A01 T02310146  RH  061%=      5-min Rain = 0
KLES 150750Z 17011KT 23/15 A2985 RMK A01 T02300145  RH  061%=      5-min Rain = 0
KLES 150755Z 17010KT 23/14 A2985 RMK A01 T02300144  RH  061%=      5-min Rain = 0
KLES 150800Z 17011KT 23/14 A2985 RMK A01 T02290144  RH  061%=      5-min Rain = 0
KLES 150805Z 17010KT 23/14 A2985 RMK A01 T02290143  RH  061%=      5-min Rain = 0
KLES 150810Z 17009KT 23/14 A2985 RMK A01 T02290143  RH  061%=      5-min Rain = 0
KLES 150815Z 17009KT 23/14 A2985 RMK A01 T02270143  RH  061%=      5-min Rain = 0
KLES 150820Z 17009KT 23/14 A2985 RMK A01 T02250142  RH  062%=      5-min Rain = 0
KLES 150825Z 18008KT 22/14 A2985 RMK A01 T02230142  RH  063%=      5-min Rain = 0
KLES 150830Z 18008KT 22/14 A2986 RMK A01 T02220142  RH  063%=      5-min Rain = 0
KLES 150835Z 19008KT 22/14 A2985 RMK A01 T02210141  RH  063%=      5-min Rain = 0
KLES 150840Z 18008KT 22/14 A2985 RMK A01 T02200141  RH  064%=      5-min Rain = 0
KLES 150845Z 19008KT 22/14 A2985 RMK A01 T02180141  RH  064%=      5-min Rain = 0
KLES 150850Z 19008KT 22/14 A2985 RMK A01 T02150141  RH  065%=      5-min Rain = 0
KLES 150855Z 19008KT 21/14 A2985 RMK A01 T02120141  RH  067%=      5-min Rain = 0
KLES 150900Z 20008KT 21/14 A2985 RMK A01 T02100141  RH  068%=      5-min Rain = 0
KLES 150905Z 20009KT 21/14 A2985 RMK A01 T02090141  RH  068%=      5-min Rain = 0
KLES 150910Z 19008KT 21/14 A2985 RMK A01 T02080141  RH  068%=      5-min Rain = 0
KLES 150915Z 20008KT 21/14 A2985 RMK A01 T02090141  RH  068%=      5-min Rain = 0
KLES 150920Z 20008KT 21/14 A2985 RMK A01 T02110141  RH  067%=      5-min Rain = 0
KLES 150925Z 20008KT 21/14 A2985 RMK A01 T02090140  RH  068%=      5-min Rain = 0
KLES 150930Z 20008KT 21/14 A2985 RMK A01 T02070140  RH  068%=      5-min Rain = 0
KLES 150935Z 19007KT 21/14 A2985 RMK A01 T02050140  RH  069%=      5-min Rain = 0
KLES 150940Z 19007KT 20/14 A2985 RMK A01 T02040141  RH  070%=      5-min Rain = 0
KLES 150945Z 19007KT 20/14 A2985 RMK A01 T02040141  RH  070%=      5-min Rain = 0
KLES 150950Z 20006KT 20/14 A2985 RMK A01 T02020141  RH  071%=      5-min Rain = 0
KLES 150955Z 20005KT 20/14 A2985 RMK A01 T01990140  RH  072%=      5-min Rain = 0
KLES 151000Z 19006KT 20/14 A2985 RMK A01 T01960139  RH  073%=      5-min Rain = 0
KLES 151005Z 19006KT 19/14 A2984 RMK A01 T01940139  RH  074%=      5-min Rain = 0
KLES 151010Z 19006KT 19/14 A2984 RMK A01 T01940140  RH  074%=      5-min Rain = 0
KLES 151015Z 19006KT 19/14 A2984 RMK A01 T01930139  RH  074%=      5-min Rain = 0
KLES 151020Z 19006KT 19/14 A2984 RMK A01 T01900139  RH  075%=      5-min Rain = 0
KLES 151025Z 19006KT 19/14 A2984 RMK A01 T01890138  RH  076%=      5-min Rain = 0
KLES 151030Z 19006KT 19/14 A2984 RMK A01 T01870138  RH  076%=      5-min Rain = 0
KLES 151035Z 20006KT 19/14 A2984 RMK A01 T01860138  RH  077%=      5-min Rain = 0
KLES 151040Z 21006KT 19/14 A2985 RMK A01 T01850137  RH  077%=      5-min Rain = 0
KLES 151045Z 22007KT 18/14 A2985 RMK A01 T01840138  RH  078%=      5-min Rain = 0
KLES 151050Z 22007KT 19/14 A2985 RMK A01 T01860139  RH  077%=      5-min Rain = 0
KLES 151055Z 20007KT 19/14 A2985 RMK A01 T01860139  RH  077%=      5-min Rain = 0
KLES 151100Z 20007KT 19/14 A2985 RMK A01 T01850139  RH  078%=      5-min Rain = 0
KLES 151105Z 19007KT 18/14 A2985 RMK A01 T01840138  RH  078%=      5-min Rain = 0
KLES 151110Z 20006KT 18/14 A2985 RMK A01 T01830138  RH  078%=      5-min Rain = 0
KLES 151115Z 18007KT 18/14 A2985 RMK A01 T01820138  RH  079%=      5-min Rain = 0
KLES 151120Z 19006KT 18/14 A2985 RMK A01 T01820138  RH  078%=      5-min Rain = 0
KLES 151125Z 20006KT 18/14 A2984 RMK A01 T01830138  RH  078%=      5-min Rain = 0
KLES 151130Z 19006KT 18/14 A2984 RMK A01 T01810137  RH  079%=      5-min Rain = 0
KLES 151135Z 18007KT 18/14 A2984 RMK A01 T01790136  RH  079%=      5-min Rain = 0
KLES 151140Z 19007KT 18/14 A2984 RMK A01 T01780136  RH  080%=      5-min Rain = 0
KLES 151145Z 21006KT 18/14 A2984 RMK A01 T01780136  RH  080%=      5-min Rain = 0
KLES 151150Z 20007KT 18/14 A2984 RMK A01 T01780136  RH  080%=      5-min Rain = 0
KLES 151155Z 19007KT 18/14 A2985 RMK A01 T01800137  RH  079%=      5-min Rain = 0
KLES 151200Z 19007KT 18/14 A2985 RMK A01 T01820137  RH  078%=      5-min Rain = 0
KLES 151205Z 19007KT 18/14 A2985 RMK A01 T01830137  RH  078%=      5-min Rain = 0
KLES 151210Z 20007KT 19/14 A2985 RMK A01 T01850138  RH  077%=      5-min Rain = 0
KLES 151215Z 19007KT 19/14 A2985 RMK A01 T01880138  RH  076%=      5-min Rain = 0
KLES 151220Z 19008KT 19/14 A2985 RMK A01 T01920138  RH  074%=      5-min Rain = 0
KLES 151225Z 19007KT 20/14 A2985 RMK A01 T01950138  RH  073%=      5-min Rain = 0
KLES 151230Z 19007KT 20/14 A2985 RMK A01 T01970138  RH  072%=      5-min Rain = 0
KLES 151235Z 19006KT 20/14 A2985 RMK A01 T01990138  RH  071%=      5-min Rain = 0
KLES 151240Z 19006KT 20/14 A2985 RMK A01 T02020139  RH  070%=      5-min Rain = 0
KLES 151245Z 19006KT 20/14 A2985 RMK A01 T02040139  RH  069%=      5-min Rain = 0
KLES 151250Z 18007KT 21/14 A2985 RMK A01 T02080139  RH  067%=      5-min Rain = 0
KLES 151255Z 19007KT 21/14 A2985 RMK A01 T02110139  RH  066%=      5-min Rain = 0
KLES 151300Z 19007KT 21/14 A2985 RMK A01 T02140139  RH  065%=      5-min Rain = 0
KLES 151305Z 19009KT 22/14 A2985 RMK A01 T02180138  RH  063%=      5-min Rain = 0
KLES 151310Z 20009KT 22/14 A2985 RMK A01 T02230136  RH  061%=      5-min Rain = 0
KLES 151315Z 20008KT 23/14 A2986 RMK A01 T02270137  RH  059%=      5-min Rain = 0
KLES 151320Z 20008KT 23/14 A2986 RMK A01 T02310136  RH  058%=      5-min Rain = 0
KLES 151325Z 20010KT 24/14 A2986 RMK A01 T02350136  RH  056%=      5-min Rain = 0
KLES 151330Z 20010G15KT 24/14 A2986 RMK A01 T02390136  RH  055%=      5-min Rain = 0
KLES 151335Z 21011G17KT 24/13 A2986 RMK A01 T02420134  RH  053%=      5-min Rain = 0
KLES 151340Z 21012KT 24/13 A2986 RMK A01 T02440131  RH  051%=      5-min Rain = 0
KLES 151345Z 21011KT 25/13 A2986 RMK A01 T02480132  RH  050%=      5-min Rain = 0
KLES 151350Z 22012KT 25/13 A2986 RMK A01 T02510132  RH  050%=      5-min Rain = 0
KLES 151355Z 22010KT 25/14 A2986 RMK A01 T02540135  RH  050%=      5-min Rain = 0
KLES 151400Z 22013KT 26/13 A2986 RMK A01 T02560132  RH  048%=      5-min Rain = 0
KLES 151405Z 22010G15KT 26/13 A2986 RMK A01 T02590134  RH  048%=      5-min Rain = 0
KLES 151410Z 22012KT 26/13 A2986 RMK A01 T02630133  RH  046%=      5-min Rain = 0
KLES 151415Z 23011KT 27/13 A2986 RMK A01 T02650133  RH  046%=      5-min Rain = 0
KLES 151420Z 23011KT 27/13 A2986 RMK A01 T02680133  RH  045%=      5-min Rain = 0
KLES 151425Z 23011KT 27/13 A2986 RMK A01 T02710132  RH  044%=      5-min Rain = 0
KLES 151430Z 23010KT 27/13 A2986 RMK A01 T02740132  RH  043%=      5-min Rain = 0
KLES 151435Z 23011KT 28/13 A2986 RMK A01 T02770131  RH  042%=      5-min Rain = 0
KLES 151440Z 24011KT 28/13 A2986 RMK A01 T02790126  RH  040%=      5-min Rain = 0
KLES 151445Z 24011KT 28/13 A2986 RMK A01 T02830128  RH  040%=      5-min Rain = 0
KLES 151450Z 23012KT 29/12 A2986 RMK A01 T02850124  RH  038%=      5-min Rain = 0
KLES 151455Z 24011KT 29/12 A2986 RMK A01 T02860124  RH  038%=      5-min Rain = 0
KLES 151500Z 24010KT 29/13 A2986 RMK A01 T02890126  RH  038%=      5-min Rain = 0
KLES 151505Z 24011KT 29/12 A2986 RMK A01 T02930124  RH  037%=      5-min Rain = 0
KLES 151510Z 25013KT 30/11 A2986 RMK A01 T02960114  RH  034%=      5-min Rain = 0
KLES 151515Z 25013G18KT 30/11 A2986 RMK A01 T03000110  RH  032%=      5-min Rain = 0
KLES 151520Z 25013KT 31/11 A2986 RMK A01 T03050109  RH  031%=      5-min Rain = 0
KLES 151525Z 25011G16KT 31/11 A2986 RMK A01 T03070108  RH  030%=      5-min Rain = 0
KLES 151530Z 26011G16KT 31/11 A2986 RMK A01 T03100110  RH  030%=      5-min Rain = 0
KLES 151535Z 25012KT 31/11 A2986 RMK A01 T03130105  RH  029%=      5-min Rain = 0
KLES 151540Z 26012G17KT 32/10 A2985 RMK A01 T03160103  RH  028%=      5-min Rain = 0
KLES 151545Z 25012KT 32/10 A2985 RMK A01 T03210095  RH  026%=      5-min Rain = 0
KLES 151550Z 26012KT 32/09 A2985 RMK A01 T03240085  RH  023%=      5-min Rain = 0
KLES 151555Z 26011G16KT 33/07 A2985 RMK A01 T03300074  RH  021%=      5-min Rain = 0
KLES 151600Z 27012KT 33/06 A2985 RMK A01 T03310061  RH  019%=      5-min Rain = 0
KLES 151605Z 27011KT 33/06 A2985 RMK A01 T03320058  RH  019%=      5-min Rain = 0
KLES 151610Z 26012G17KT 34/05 A2985 RMK A01 T03350051  RH  017%=      5-min Rain = 0
KLES 151615Z 27010KT 34/05 A2985 RMK A01 T03370045  RH  016%=      5-min Rain = 0
KLES 151620Z 25011KT 34/04 A2985 RMK A01 T03400043  RH  016%=      5-min Rain = 0
KLES 151625Z 27010G15KT 34/02 A2985 RMK A01 T03410024  RH  014%=      5-min Rain = 0
KLES 151630Z 29010KT 34/01 A2986 RMK A01 T03390010  RH  013%=      5-min Rain = 0
KLES 151635Z 27011KT 34/01 A2985 RMK A01 T03410009  RH  012%=      5-min Rain = 0
KLES 151640Z 28010KT 34/02 A2985 RMK A01 T03440015  RH  013%=      5-min Rain = 0
KLES 151645Z 28011G19KT 34/01 A2985 RMK A01 T03430014  RH  013%=      5-min Rain = 0
KLES 151650Z 29012G17KT 34/02 A2985 RMK A01 T03440015  RH  013%=      5-min Rain = 0
KLES 151655Z 30011G16KT 35/02 A2986 RMK A01 T03450022  RH  013%=      5-min Rain = 0
KLES 151700Z 30010G16KT 35/02 A2986 RMK A01 T03460024  RH  013%=      5-min Rain = 0
KLES 151705Z 30010G15KT 35/03 A2985 RMK A01 T03450029  RH  014%=      5-min Rain = 0
KLES 151710Z 31009G15KT 35/03 A2985 RMK A01 T03500032  RH  014%=      5-min Rain = 0
KLES 151715Z 29011G16KT 35/03 A2985 RMK A01 T03480031  RH  014%=      5-min Rain = 0
KLES 151720Z 28012G17KT 35/03 A2985 RMK A01 T03500031  RH  014%=      5-min Rain = 0
KLES 151725Z 28010G16KT 35/03 A2985 RMK A01 T03480027  RH  014%=      5-min Rain = 0
KLES 151730Z 30009KT 35/03 A2986 RMK A01 T03520027  RH  013%=      5-min Rain = 0
KLES 151735Z 30008G13KT 35/03 A2986 RMK A01 T03530030  RH  013%=      5-min Rain = 0
KLES 151740Z 31010KT 36/03 A2985 RMK A01 T03580032  RH  013%=      5-min Rain = 0
KLES 151745Z 31007KT 36/04 A2985 RMK A01 T03580035  RH  014%=      5-min Rain = 0
KLES 151750Z 31011G17KT 36/03 A2985 RMK A01 T03590032  RH  013%=      5-min Rain = 0
KLES 151755Z 31009KT 36/03 A2985 RMK A01 T03590031  RH  013%=      5-min Rain = 0
KLES 151800Z 31011G16KT 36/03 A2985 RMK A01 T03570029  RH  013%=      5-min Rain = 0
KLES 151805Z 30008G13KT 36/03 A2985 RMK A01 T03550028  RH  013%=      5-min Rain = 0
KLES 151810Z 29009G15KT 35/03 A2985 RMK A01 T03540025  RH  013%=      5-min Rain = 0
KLES 151815Z 28009KT 36/02 A2985 RMK A01 T03560024  RH  013%=      5-min Rain = 0
KLES 151820Z 31009KT 36/03 A2985 RMK A01 T03590026  RH  013%=      5-min Rain = 0
KLES 151825Z 31008G14KT 36/02 A2985 RMK A01 T03640023  RH  012%=      5-min Rain = 0
KLES 151830Z 31008KT 37/02 A2985 RMK A01 T03660016  RH  011%=      5-min Rain = 0
KLES 151835Z 31006G11KT 37/02 A2985 RMK A01 T03680015  RH  011%=      5-min Rain = 0
KLES 151840Z 31009KT 37/02 A2984 RMK A01 T03670019  RH  012%=      5-min Rain = 0
KLES 151845Z 30005KT 37/02 A2984 RMK A01 T03680019  RH  011%=      5-min Rain = 0
KLES 151850Z 30007G13KT 37/02 A2984 RMK A01 T03700016  RH  011%=      5-min Rain = 0
KLES 151855Z 30009KT 36/M00 A2984 RMK A01 T03631002  RH  010%=      5-min Rain = 0
KLES 151900Z 31007KT 36/M00 A2984 RMK A01 T03591003  RH  010%=      5-min Rain = 0
KLES 151905Z 29006KT 36/01 A2984 RMK A01 T03620010  RH  011%=      5-min Rain = 0
KLES 151910Z 27006G11KT 37/01 A2984 RMK A01 T03680013  RH  011%=      5-min Rain = 0
KLES 151915Z 29007KT 37/01 A2984 RMK A01 T03700013  RH  011%=      5-min Rain = 0
KLES 151920Z 30005G11KT 37/01 A2983 RMK A01 T03680009  RH  011%=      5-min Rain = 0
KLES 151925Z 29004KT 37/01 A2983 RMK A01 T03710008  RH  010%=      5-min Rain = 0
KLES 151930Z 26004KT 37/00 A2983 RMK A01 T03730004  RH  010%=      5-min Rain = 0
KLES 151935Z 27004G10KT 38/01 A2983 RMK A01 T03780011  RH  010%=      5-min Rain = 0
KLES 151940Z 20005KT 38/01 A2983 RMK A01 T03830009  RH  010%=      5-min Rain = 0
KLES 151945Z 26007G13KT 38/01 A2982 RMK A01 T03810007  RH  010%=      5-min Rain = 0
KLES 151950Z 26010G15KT 38/01 A2982 RMK A01 T03820007  RH  010%=      5-min Rain = 0
KLES 151955Z 25006KT 38/01 A2982 RMK A01 T03780009  RH  010%=      5-min Rain = 0
KLES 152000Z 25008G14KT 38/01 A2982 RMK A01 T03840008  RH  010%=      5-min Rain = 0
KLES 152005Z 24008KT 38/00 A2982 RMK A01 T03780004  RH  010%=      5-min Rain = 0
KLES 152010Z 24005KT 38/00 A2982 RMK A01 T03750002  RH  010%=      5-min Rain = 0
KLES 152015Z 26011KT 37/00 A2982 RMK A01 T03710004  RH  010%=      5-min Rain = 0
KLES 152020Z 26010KT 38/01 A2982 RMK A01 T03760006  RH  010%=      5-min Rain = 0
KLES 152025Z 29010KT 37/00 A2981 RMK A01 T03740004  RH  010%=      5-min Rain = 0
KLES 152030Z 27013KT 37/M00 A2981 RMK A01 T03711003  RH  010%=      5-min Rain = 0
KLES 152035Z 27013G18KT 38/M01 A2981 RMK A01 T03781005  RH  009%=      5-min Rain = 0
KLES 152040Z 28011G16KT 38/M01 A2981 RMK A01 T03771005  RH  009%=      5-min Rain = 0
KLES 152045Z 28009KT 38/M01 A2981 RMK A01 T03751005  RH  009%=      5-min Rain = 0
KLES 152050Z 29008G18KT 38/M00 A2981 RMK A01 T03791003  RH  009%=      5-min Rain = 0
KLES 152055Z 30008KT 38/M00 A2981 RMK A01 T03771002  RH  009%=      5-min Rain = 0
KLES 152100Z 26006KT 38/M00 A298 RMK A01 T03821002  RH  009%=      5-min Rain = 0
KLES 152105Z 30011G17KT 39/M00 A298 RMK A01 T03861001  RH  009%=      5-min Rain = 0
KLES 152110Z 26009G17KT 38/M01 A298 RMK A01 T03771006  RH  009%=      5-min Rain = 0
KLES 152115Z 28009KT 37/M00 A298 RMK A01 T03721004  RH  009%=      5-min Rain = 0
KLES 152120Z 27009G14KT 37/M00 A298 RMK A01 T03691004  RH  010%=      5-min Rain = 0
KLES 152125Z 26010G18KT 37/M00 A298 RMK A01 T03671002  RH  010%=      5-min Rain = 0
KLES 152130Z 25010G17KT 37/M00 A2979 RMK A01 T03711001  RH  010%=      5-min Rain = 0
KLES 152135Z 26010KT 37/M00 A2979 RMK A01 T03681001  RH  010%=      5-min Rain = 0
KLES 152140Z 26009KT 37/00 A2979 RMK A01 T03690004  RH  010%=      5-min Rain = 0
KLES 152145Z 26010G16KT 38/00 A2979 RMK A01 T03780004  RH  010%=      5-min Rain = 0
KLES 152150Z 26009KT 38/M00 A2979 RMK A01 T03801001  RH  009%=      5-min Rain = 0
KLES 152155Z 27008G13KT 38/M00 A2979 RMK A01 T03811002  RH  009%=      5-min Rain = 0
KLES 152200Z 24013G20KT 37/00 A2978 RMK A01 T03710004  RH  010%=      5-min Rain = 0
KLES 152205Z 23012G18KT 36/01 A2978 RMK A01 T03610011  RH  011%=      5-min Rain = 0
KLES 152210Z 23011KT 37/01 A2978 RMK A01 T03650014  RH  011%=      5-min Rain = 0
KLES 152215Z 24011KT 38/01 A2978 RMK A01 T03750005  RH  010%=      5-min Rain = 0
KLES 152220Z 22016G29KT 38/02 A2978 RMK A01 T03790019  RH  011%=      5-min Rain = 0
KLES 152225Z 19018G26KT 38/02 A2978 RMK A01 T03820019  RH  011%=      5-min Rain = 0
KLES 152230Z 19013G18KT 38/01 A2978 RMK A01 T03820011  RH  010%=      5-min Rain = 0
KLES 152235Z 19007G12KT 38/01 A2978 RMK A01 T03810010  RH  010%=      5-min Rain = 0
KLES 152240Z 21009KT 38/02 A2977 RMK A01 T03820015  RH  010%=      5-min Rain = 0
KLES 152245Z 20008KT 38/01 A2977 RMK A01 T03810011  RH  010%=      5-min Rain = 0
KLES 152250Z 20007G12KT 38/01 A2977 RMK A01 T03800012  RH  010%=      5-min Rain = 0
KLES 152255Z 21006G12KT 38/01 A2976 RMK A01 T03790011  RH  010%=      5-min Rain = 0
KLES 152300Z 21006G11KT 37/02 A2976 RMK A01 T03690016  RH  011%=      5-min Rain = 0
KLES 152305Z 19007KT 37/01 A2976 RMK A01 T03650011  RH  011%=      5-min Rain = 0
KLES 152310Z 21007KT 36/02 A2976 RMK A01 T03590022  RH  012%=      5-min Rain = 0
KLES 152315Z 21007G12KT 35/02 A2976 RMK A01 T03530015  RH  012%=      5-min Rain = 0
KLES 152320Z 22007KT 35/03 A2976 RMK A01 T03520025  RH  013%=      5-min Rain = 0
KLES 152325Z 22007KT 35/03 A2975 RMK A01 T03480027  RH  014%=      5-min Rain = 0
KLES 152330Z 23005KT 35/02 A2975 RMK A01 T03530022  RH  013%=      5-min Rain = 0
KLES 152335Z 21004KT 37/02 A2975 RMK A01 T03650019  RH  012%=      5-min Rain = 0
KLES 152340Z 23007KT 37/01 A2975 RMK A01 T03700013  RH  011%=      5-min Rain = 0
KLES 152345Z 25005KT 37/02 A2975 RMK A01 T03720018  RH  011%=      5-min Rain = 0
KLES 152350Z 24006G11KT 37/02 A2974 RMK A01 T03740020  RH  011%=      5-min Rain = 0
KLES 152355Z 24008KT 38/01 A2974 RMK A01 T03750012  RH  010%=      5-min Rain = 0
KLES 160000Z 24009G14KT 38/02 A2974 RMK A01 T03750018  RH  011%=      5-min Rain = 0
KLES 160005Z 24014G19KT 38/02 A2974 RMK A01 T03750016  RH  011%=      5-min Rain = 0
KLES 160010Z 25012G21KT 37/02 A2974 RMK A01 T03740020  RH  011%=      5-min Rain = 0
KLES 160015Z 24015G21KT 37/02 A2974 RMK A01 T03730019  RH  011%=      5-min Rain = 0
KLES 160020Z 24013G22KT 37/02 A2974 RMK A01 T03700016  RH  011%=      5-min Rain = 0
KLES 160025Z 25013G20KT 37/02 A2974 RMK A01 T03690015  RH  011%=      5-min Rain = 0
KLES 160030Z 25014G20KT 37/01 A2974 RMK A01 T03680014  RH  011%=      5-min Rain = 0
KLES 160035Z 25016G21KT 37/01 A2974 RMK A01 T03650008  RH  011%=      5-min Rain = 0
KLES 160040Z 25017G22KT 36/00 A2974 RMK A01 T03630002  RH  010%=      5-min Rain = 0
KLES 160045Z 25013G20KT 36/01 A2975 RMK A01 T03620005  RH  011%=      5-min Rain = 0
KLES 160050Z 24014KT 36/00 A2975 RMK A01 T03600003  RH  011%=      5-min Rain = 0
KLES 160055Z 24013G18KT 36/00 A2975 RMK A01 T03580003  RH  011%=      5-min Rain = 0
KLES 160100Z 24012KT 36/00 A2976 RMK A01 T03560003  RH  011%=      5-min Rain = 0
KLES 160105Z 25012G17KT 35/00 A2976 RMK A01 T03540003  RH  011%=      5-min Rain = 0
KLES 160110Z 25012KT 35/00 A2976 RMK A01 T03520004  RH  011%=      5-min Rain = 0
KLES 160115Z 25010KT 35/01 A2976 RMK A01 T03490006  RH  012%=      5-min Rain = 0
KLES 160120Z 26010KT 35/01 A2976 RMK A01 T03460007  RH  012%=      5-min Rain = 0
KLES 160125Z 26009KT 34/01 A2976 RMK A01 T03430009  RH  012%=      5-min Rain = 0
KLES 160130Z 26007KT 34/01 A2977 RMK A01 T03380011  RH  013%=      5-min Rain = 0
KLES 160135Z 26007KT 33/01 A2977 RMK A01 T03320013  RH  013%=      5-min Rain = 0
KLES 160140Z 26007KT 33/01 A2977 RMK A01 T03280013  RH  014%=      5-min Rain = 0
KLES 160145Z 26008KT 33/01 A2977 RMK A01 T03250010  RH  014%=      5-min Rain = 0
KLES 160150Z 25008KT 32/01 A2977 RMK A01 T03230008  RH  014%=      5-min Rain = 0
KLES 160155Z 25008KT 32/01 A2977 RMK A01 T03180007  RH  014%=      5-min Rain = 0
KLES 160200Z 25008KT 31/01 A2977 RMK A01 T03140007  RH  014%=      5-min Rain = 0
KLES 160205Z 25008KT 31/01 A2977 RMK A01 T03090009  RH  015%=      5-min Rain = 0
KLES 160210Z 25008KT 30/01 A2977 RMK A01 T03040007  RH  015%=      5-min Rain = 0
KLES 160215Z 25008KT 30/00 A2978 RMK A01 T03000004  RH  015%=      5-min Rain = 0
KLES 160220Z 25010G15KT 30/00 A2978 RMK A01 T02970003  RH  015%=      5-min Rain = 0
KLES 160225Z 26011G17KT 30/M00 A2978 RMK A01 T02991001  RH  015%=      5-min Rain = 0
KLES 160230Z 31010KT 30/01 A2979 RMK A01 T03000006  RH  015%=      5-min Rain = 0
KLES 160235Z 33008KT 29/05 A2979 RMK A01 T02940052  RH  022%=      5-min Rain = 0
KLES 160240Z 34008KT 29/08 A298 RMK A01 T02900080  RH  028%=      5-min Rain = 0
KLES 160245Z 35007KT 28/09 A298 RMK A01 T02820094  RH  032%=      5-min Rain = 0
KLES 160250Z 36006KT 27/10 A298 RMK A01 T02730096  RH  034%=      5-min Rain = 0
KLES 160255Z 34004KT 27/10 A298 RMK A01 T02660098  RH  036%=      5-min Rain = 0
KLES 160300Z 34005KT 26/10 A298 RMK A01 T02600100  RH  038%=      5-min Rain = 0
KLES 160305Z 35007KT 25/10 A2981 RMK A01 T02540101  RH  039%=      5-min Rain = 0
KLES 160310Z 35006KT 25/10 A2981 RMK A01 T02510102  RH  040%=      5-min Rain = 0
KLES 160315Z 35006KT 25/10 A2981 RMK A01 T02480103  RH  041%=      5-min Rain = 0
KLES 160320Z 34006KT 25/10 A2981 RMK A01 T02470104  RH  042%=      5-min Rain = 0
KLES 160325Z 35006KT 24/11 A2981 RMK A01 T02440106  RH  043%=      5-min Rain = 0
KLES 160330Z 35006KT 24/11 A2981 RMK A01 T02420106  RH  044%=      5-min Rain = 0
KLES 160335Z 35006KT 24/11 A2981 RMK A01 T02410106  RH  044%=      5-min Rain = 0
KLES 160340Z 35005KT 24/11 A2981 RMK A01 T02380106  RH  045%=      5-min Rain = 0
KLES 160345Z 36006KT 24/11 A2981 RMK A01 T02360106  RH  045%=      5-min Rain = 0
KLES 160350Z 01005KT 23/11 A2981 RMK A01 T02340105  RH  046%=      5-min Rain = 0
KLES 160355Z 05003KT 23/11 A2982 RMK A01 T02310105  RH  047%=      5-min Rain = 0
KLES 160400Z 07003KT 23/11 A2982 RMK A01 T02270106  RH  048%=      5-min Rain = 0
KLES 160405Z 05002KT 23/11 A2983 RMK A01 T02260105  RH  048%=      5-min Rain = 0
KLES 160410Z 00002KT 22/10 A2983 RMK A01 T02240104  RH  048%=      5-min Rain = 0
KLES 160415Z 15003KT 22/10 A2982 RMK A01 T02190104  RH  049%=      5-min Rain = 0
KLES 160420Z 08002KT 22/10 A2983 RMK A01 T02190104  RH  050%=      5-min Rain = 0
KLES 160425Z 36004KT 22/10 A2984 RMK A01 T02200104  RH  049%=      5-min Rain = 0
KLES 160430Z 32003KT 22/11 A2984 RMK A01 T02190105  RH  050%=      5-min Rain = 0
KLES 160435Z 32003KT 22/10 A2984 RMK A01 T02230102  RH  048%=      5-min Rain = 0
KLES 160440Z 35005KT 23/10 A2984 RMK A01 T02290098  RH  045%=      5-min Rain = 0
KLES 160445Z 00009KT 23/10 A2984 RMK A01 T02330096  RH  043%=      5-min Rain = 0
KLES 160450Z 33006G11KT 23/10 A2985 RMK A01 T02330096  RH  043%=      5-min Rain = 0
KLES 160455Z 33003KT 23/10 A2986 RMK A01 T02300096  RH  044%=      5-min Rain = 0

Page generated in 0.0091 seconds.